Airfield :
LOGIN :

Register | Disclaimer

   EN    FR    IT 

 










Legend :    VFR   Marginal VFR   IFR   Intensive IFR   Very Intensive IFR
Visi :
Ceiling :
>= 8 km
>= 3000ft
5 to 8 km
1000 to 3000 ft
1500m to 5 km
500 to 1000 ft
800 to 1500m
200 to 500 ft
< 800m
< 200 ft
Symbols :   Thunderstorms  Fog  Heavy snow  Heavy precipitations  Wind > 20 kt
SIGMETs :     Misc.  Thunderstorms  Icing  Turbulence  Mountain Waves  Volcanic Ashes







- Airport Elevation : 1966 ft
- IATA code : SGE


EDGS - Siegerland

CURRENT METAR :
  • 181620Z 28005KT 250V310 CAVOK 22/07 Q1022

EXPIRED METARs :
  • 181550Z 29008KT CAVOK 22/07 Q1022
  • 181520Z 26007KT 220V300 CAVOK 22/06 Q1023
  • 181450Z 28008KT 240V310 CAVOK 22/07 Q1023
  • 181420Z 26005KT 180V320 CAVOK 22/08 Q1023
  • 181350Z VRB05KT CAVOK 22/07 Q1023

TAF TAF EDGS
Valid from the 18 at 15:00 until the 19 at 00:00 UTC


181400Z 1815/1824 29006KT CAVOK
No reported NOTAMs for that airfield.



MET'MAP, your aeronautical weather chart ! - Copyright ORBIFLY December 2007 - Disclaimer

ORBIFLY MET'MAP TEAM :

Programming & Development : Alexandra Zaïnal
Concept & Development : Baudouin d'Aumeries
Co-Development & Prog : Marc-Olivier Méhu
Technical & hardware support : Manuel Goepfert

Contact : metmap@orbifly.com




SOURCES & CREDITS :

   NOAA